Time;durP1;ratioP1;P1;durP2;ratioP2;P2;SDS_P1;SDS_P2;PMS_P1;PMS_P2;Temp;Humidity;BMP_temperature;BMP_pressure;BME280_temperature;BME280_humidity;BME280_pressure;Samples;Min_cycle;Max_cycle;Signal;HPM_P1;HPM_P2
2022/02/11 00:01:50;;;;;;;1.90;1.00;;;;;;;;;;5078203;28;20029;-47
2022/02/11 00:07:13;;;;;;;2.78;1.15;;;;;;;;;;5044867;28;20044;-48
2022/02/11 00:09:39;;;;;;;2.42;1.10;;;;;;;;;;5064911;28;20102;-48
2022/02/11 00:12:06;;;;;;;5.10;1.27;;;;;;;;;;5068257;28;20033;-47
2022/02/11 00:14:40;;;;;;;2.40;1.00;;;;;;;;;;5073408;28;20491;-48
2022/02/11 00:17:06;;;;;;;2.92;1.30;;;;;;;;;;5073668;28;20024;-47
2022/02/11 00:19:32;;;;;;;2.33;1.10;;;;;;;;;;5073316;28;20021;-48
2022/02/11 00:21:58;;;;;;;2.30;1.27;;;;;;;;;;5061641;28;20032;-48
2022/02/11 00:24:24;;;;;;;2.88;1.65;;;;;;;;;;5073996;28;20058;-49
2022/02/11 00:27:13;;;;;;;1.58;1.30;;;;;;;;;;5065681;28;20086;-48
2022/02/11 00:32:41;;;;;;;2.08;1.73;;;;;;;;;;5069162;28;20071;-48
2022/02/11 00:35:35;;;;;;;2.75;1.50;;;;;;;;;;5072155;28;20032;-48
2022/02/11 00:37:54;;;;;;;3.40;2.05;;;;;;;;;;5070662;28;20357;-48
2022/02/11 00:40:37;;;;;;;3.85;1.48;;;;;;;;;;5071823;28;20032;-48
2022/02/11 00:43:53;;;;;;;7.10;1.83;;;;;;;;;;5066088;28;20012;-49
2022/02/11 01:02:28;;;;;;;2.33;1.77;;;;;;;;;;5060617;28;20044;-53
2022/02/11 01:04:54;;;;;;;4.40;1.63;;;;;;;;;;5063766;28;20028;-48
2022/02/11 01:07:20;;;;;;;2.78;1.80;;;;;;;;;;5065175;28;20487;-53
2022/02/11 01:09:46;;;;;;;3.20;1.92;;;;;;;;;;5071256;28;20024;-53
2022/02/11 01:12:13;;;;;;;2.13;1.92;;;;;;;;;;5066497;28;20017;-53
2022/02/11 01:14:46;;;;;;;3.60;2.05;;;;;;;;;;5072775;28;20434;-52
2022/02/11 01:19:52;;;;;;;4.75;2.17;;;;;;;;;;5065891;28;20108;-52
2022/02/11 01:22:37;;;;;;;3.08;1.80;;;;;;;;;;5059137;28;20052;-51
2022/02/11 01:25:32;;;;;;;3.75;2.08;;;;;;;;;;5057987;28;20056;-53
2022/02/11 01:33:16;;;;;;;2.30;2.00;;;;;;;;;;5068353;28;20449;-54
2022/02/11 01:49:55;;;;;;;3.45;2.10;;;;;;;;;;5072536;28;20051;-48
2022/02/11 01:55:23;;;;;;;3.97;2.25;;;;;;;;;;5067732;28;20094;-51
2022/02/11 02:00:55;;;;;;;3.80;2.65;;;;;;;;;;5057372;28;20102;-51
2022/02/11 02:06:15;;;;;;;4.63;2.38;;;;;;;;;;5056433;28;20120;-54
2022/02/11 02:09:06;;;;;;;5.47;2.65;;;;;;;;;;5061368;28;20033;-52
2022/02/11 02:12:05;;;;;;;4.78;2.80;;;;;;;;;;5053137;28;20033;-50
2022/02/11 02:18:07;;;;;;;4.47;2.83;;;;;;;;;;5061848;28;20078;-48
2022/02/11 02:26:00;;;;;;;6.05;2.60;;;;;;;;;;5064103;28;20044;-49
2022/02/11 02:29:30;;;;;;;4.78;3.35;;;;;;;;;;5077053;28;20048;-51
2022/02/11 02:34:14;;;;;;;5.95;2.67;;;;;;;;;;5060283;28;20078;-49
2022/02/11 02:37:11;;;;;;;6.38;2.80;;;;;;;;;;5070129;28;20032;-48
2022/02/11 02:56:37;;;;;;;6.43;3.35;;;;;;;;;;5060275;28;20048;-48
2022/02/11 02:59:51;;;;;;;7.78;3.00;;;;;;;;;;5049187;28;20400;-54
2022/02/11 03:31:36;;;;;;;6.55;3.10;;;;;;;;;;5071837;28;20385;-49
2022/02/11 03:34:59;;;;;;;7.05;3.17;;;;;;;;;;5065016;28;20036;-49
2022/02/11 03:51:29;;;;;;;6.65;2.90;;;;;;;;;;5059481;28;20047;-48
2022/02/11 04:08:21;;;;;;;9.13;3.25;;;;;;;;;;5069781;28;20104;-48
2022/02/11 04:22:08;;;;;;;9.18;4.05;;;;;;;;;;5071314;28;20039;-48
2022/02/11 04:28:14;;;;;;;13.00;5.10;;;;;;;;;;5060205;28;20079;-49
2022/02/11 05:00:02;;;;;;;12.85;5.40;;;;;;;;;;5062109;28;20077;-47
2022/02/11 05:02:30;;;;;;;12.63;5.60;;;;;;;;;;5070348;28;20116;-48
2022/02/11 05:04:57;;;;;;;11.27;5.70;;;;;;;;;;5061944;28;20423;-47
2022/02/11 05:07:23;;;;;;;8.88;4.55;;;;;;;;;;5066569;28;20059;-47
2022/02/11 05:09:49;;;;;;;9.45;4.88;;;;;;;;;;5068502;28;20056;-47
2022/02/11 05:12:15;;;;;;;8.98;4.57;;;;;;;;;;5072191;28;20029;-48
2022/02/11 05:14:41;;;;;;;12.40;4.70;;;;;;;;;;5068591;28;20036;-47
2022/02/11 05:17:07;;;;;;;9.98;5.13;;;;;;;;;;5072686;28;20359;-51
2022/02/11 05:19:32;;;;;;;9.73;4.93;;;;;;;;;;5065248;28;20131;-49
2022/02/11 05:21:59;;;;;;;11.15;4.97;;;;;;;;;;5072046;28;20025;-53
2022/02/11 05:24:25;;;;;;;8.93;4.70;;;;;;;;;;5070339;28;20021;-52
2022/02/11 05:26:51;;;;;;;10.07;4.90;;;;;;;;;;5063387;28;20025;-52
2022/02/11 05:29:17;;;;;;;10.07;4.78;;;;;;;;;;5068653;28;20035;-50
2022/02/11 05:31:43;;;;;;;8.60;4.80;;;;;;;;;;5065747;28;20029;-48
2022/02/11 05:34:10;;;;;;;10.43;4.90;;;;;;;;;;5069923;28;20062;-52
2022/02/11 05:36:36;;;;;;;9.15;4.13;;;;;;;;;;5058032;28;20108;-49
2022/02/11 05:39:02;;;;;;;10.57;4.47;;;;;;;;;;5069736;28;20116;-48
2022/02/11 05:41:28;;;;;;;9.75;4.50;;;;;;;;;;5058112;28;20104;-50
2022/02/11 05:43:54;;;;;;;12.43;4.90;;;;;;;;;;5068342;28;20456;-50
2022/02/11 05:46:21;;;;;;;10.35;4.43;;;;;;;;;;5057087;28;20066;-51
2022/02/11 05:48:47;;;;;;;9.68;4.20;;;;;;;;;;5064306;28;20036;-48
2022/02/11 05:51:13;;;;;;;9.05;4.32;;;;;;;;;;5067785;28;20059;-48
2022/02/11 05:53:39;;;;;;;9.90;4.65;;;;;;;;;;5061047;28;20412;-49
2022/02/11 05:56:05;;;;;;;9.57;4.47;;;;;;;;;;5066854;28;20040;-48
2022/02/11 05:58:31;;;;;;;11.35;4.80;;;;;;;;;;5070032;28;20029;-48
2022/02/11 06:00:57;;;;;;;11.00;5.45;;;;;;;;;;5064239;28;20025;-52
2022/02/11 06:03:23;;;;;;;10.05;4.55;;;;;;;;;;5071960;28;20078;-54
2022/02/11 06:05:49;;;;;;;8.13;4.80;;;;;;;;;;5069698;28;20436;-51
2022/02/11 06:08:15;;;;;;;8.88;4.85;;;;;;;;;;5055038;28;20039;-52
2022/02/11 06:10:41;;;;;;;10.95;4.45;;;;;;;;;;5067919;28;20032;-50
2022/02/11 06:13:07;;;;;;;11.07;4.35;;;;;;;;;;5068881;28;20035;-50
2022/02/11 06:15:33;;;;;;;9.52;4.55;;;;;;;;;;5067520;28;20036;-49
2022/02/11 06:17:59;;;;;;;9.18;4.55;;;;;;;;;;5070670;28;20028;-50
2022/02/11 06:20:28;;;;;;;10.07;4.28;;;;;;;;;;5071065;28;20033;-48
2022/02/11 06:22:54;;;;;;;10.68;5.20;;;;;;;;;;5064839;28;20060;-50
2022/02/11 06:25:21;;;;;;;10.65;5.00;;;;;;;;;;5056283;28;20035;-51
2022/02/11 06:27:47;;;;;;;10.93;4.43;;;;;;;;;;5068194;28;20034;-48
2022/02/11 06:30:13;;;;;;;9.20;4.35;;;;;;;;;;5070549;28;20422;-51
2022/02/11 06:32:39;;;;;;;7.85;4.45;;;;;;;;;;5069075;28;20086;-50
2022/02/11 06:35:05;;;;;;;8.65;4.30;;;;;;;;;;5063565;28;20425;-49
2022/02/11 06:37:31;;;;;;;7.05;4.00;;;;;;;;;;5059909;28;20035;-51
2022/02/11 06:39:57;;;;;;;10.45;4.65;;;;;;;;;;5069989;28;20063;-54
2022/02/11 06:42:23;;;;;;;12.38;4.03;;;;;;;;;;5069130;28;20040;-49
2022/02/11 06:44:51;;;;;;;10.82;4.43;;;;;;;;;;5065899;28;20430;-53
2022/02/11 06:47:17;;;;;;;10.55;5.45;;;;;;;;;;5065789;28;20032;-51
2022/02/11 06:49:43;;;;;;;9.93;4.35;;;;;;;;;;5068541;28;20040;-49
2022/02/11 06:52:09;;;;;;;9.30;4.00;;;;;;;;;;5070186;28;20036;-52
2022/02/11 06:54:36;;;;;;;12.73;5.10;;;;;;;;;;5059910;28;20052;-51
2022/02/11 06:57:02;;;;;;;13.27;4.78;;;;;;;;;;5055481;28;20080;-53
2022/02/11 06:59:28;;;;;;;8.93;4.35;;;;;;;;;;5061251;28;20103;-53
2022/02/11 07:01:54;;;;;;;6.97;4.05;;;;;;;;;;5077063;28;20124;-53
2022/02/11 07:04:20;;;;;;;11.52;4.72;;;;;;;;;;5067774;28;20055;-51
2022/02/11 07:06:46;;;;;;;11.75;4.40;;;;;;;;;;5068415;28;20024;-51
2022/02/11 07:09:12;;;;;;;12.05;4.43;;;;;;;;;;5061023;28;20564;-53
2022/02/11 07:11:39;;;;;;;11.43;4.22;;;;;;;;;;5062734;28;20024;-54
2022/02/11 07:14:05;;;;;;;10.73;4.85;;;;;;;;;;5069631;28;20060;-53
2022/02/11 07:16:31;;;;;;;6.90;4.03;;;;;;;;;;5068967;28;20067;-51
2022/02/11 07:18:56;;;;;;;9.73;4.15;;;;;;;;;;5067893;28;20471;-49
2022/02/11 07:21:22;;;;;;;10.45;4.35;;;;;;;;;;5067427;28;20523;-50
2022/02/11 07:23:48;;;;;;;6.88;4.60;;;;;;;;;;5070208;28;20461;-52
2022/02/11 07:26:14;;;;;;;9.70;4.35;;;;;;;;;;5068390;28;20349;-49
2022/02/11 07:28:40;;;;;;;9.63;4.15;;;;;;;;;;5065016;28;20107;-50
2022/02/11 07:31:06;;;;;;;9.77;4.25;;;;;;;;;;5076935;28;20473;-49
2022/02/11 07:33:32;;;;;;;8.48;4.22;;;;;;;;;;5070022;28;20060;-49
2022/02/11 07:35:58;;;;;;;15.32;4.25;;;;;;;;;;5067889;28;20420;-49
2022/02/11 07:38:24;;;;;;;9.98;4.30;;;;;;;;;;5071656;28;20029;-49
2022/02/11 07:40:51;;;;;;;9.77;5.38;;;;;;;;;;5071356;28;20719;-53
2022/02/11 07:43:16;;;;;;;11.35;4.35;;;;;;;;;;5070059;28;20020;-55
2022/02/11 07:45:42;;;;;;;10.05;4.50;;;;;;;;;;5067644;28;20020;-51
2022/02/11 07:48:08;;;;;;;10.70;3.95;;;;;;;;;;5067933;28;20017;-53
2022/02/11 07:50:35;;;;;;;8.13;3.72;;;;;;;;;;5074170;28;20016;-53
2022/02/11 07:53:01;;;;;;;6.18;3.53;;;;;;;;;;5071878;28;20067;-49
2022/02/11 07:55:27;;;;;;;8.70;3.60;;;;;;;;;;5066869;28;20662;-52
2022/02/11 07:57:53;;;;;;;6.80;3.72;;;;;;;;;;5065518;28;20021;-49
2022/02/11 08:00:19;;;;;;;10.45;3.75;;;;;;;;;;5068108;28;20032;-49
2022/02/11 08:02:45;;;;;;;8.00;3.20;;;;;;;;;;5067722;28;20016;-49
2022/02/11 08:05:11;;;;;;;6.72;2.97;;;;;;;;;;5068146;28;20036;-51
2022/02/11 08:07:37;;;;;;;13.35;5.55;;;;;;;;;;5065161;28;20559;-49
2022/02/11 08:10:03;;;;;;;8.10;3.38;;;;;;;;;;5061933;28;20036;-49
2022/02/11 08:12:34;;;;;;;7.13;2.90;;;;;;;;;;5067496;28;20082;-50
2022/02/11 08:15:00;;;;;;;9.45;3.58;;;;;;;;;;5064951;28;20079;-52
2022/02/11 08:17:26;;;;;;;6.28;3.22;;;;;;;;;;5070223;28;20032;-54
2022/02/11 08:19:52;;;;;;;6.97;3.30;;;;;;;;;;5058796;28;20032;-50
2022/02/11 08:22:18;;;;;;;8.25;3.00;;;;;;;;;;5068832;28;20029;-53
2022/02/11 08:24:44;;;;;;;6.15;2.50;;;;;;;;;;5062808;28;20040;-49
2022/02/11 08:27:13;;;;;;;7.63;2.47;;;;;;;;;;5073484;28;20119;-49
2022/02/11 08:29:39;;;;;;;6.70;3.33;;;;;;;;;;5067286;28;20041;-51
2022/02/11 08:32:06;;;;;;;8.43;3.75;;;;;;;;;;5071046;28;20499;-54
2022/02/11 08:34:32;;;;;;;4.57;2.33;;;;;;;;;;5075596;28;20059;-54
2022/02/11 08:36:58;;;;;;;5.95;2.08;;;;;;;;;;5068567;28;20586;-51
2022/02/11 08:39:24;;;;;;;10.95;2.58;;;;;;;;;;5070939;28;20122;-50
2022/02/11 08:41:50;;;;;;;7.68;3.28;;;;;;;;;;5062549;28;20033;-50
2022/02/11 08:44:16;;;;;;;11.77;2.88;;;;;;;;;;5059548;28;20029;-50
2022/02/11 08:46:42;;;;;;;5.20;2.28;;;;;;;;;;5070023;28;20032;-51
2022/02/11 08:49:08;;;;;;;6.22;2.67;;;;;;;;;;5064882;28;20028;-54
2022/02/11 08:51:34;;;;;;;8.43;2.67;;;;;;;;;;5064714;28;20703;-52
2022/02/11 08:54:00;;;;;;;5.82;2.85;;;;;;;;;;5068447;28;20045;-51
2022/02/11 08:56:28;;;;;;;4.85;2.72;;;;;;;;;;5065541;28;20039;-54
2022/02/11 08:58:54;;;;;;;8.35;2.90;;;;;;;;;;5067745;28;20025;-49
2022/02/11 09:01:20;;;;;;;8.13;3.10;;;;;;;;;;5070966;28;20025;-50
2022/02/11 09:03:46;;;;;;;12.50;3.10;;;;;;;;;;5060322;28;20056;-49
2022/02/11 09:06:12;;;;;;;14.32;4.13;;;;;;;;;;5068695;28;20082;-49
2022/02/11 09:08:40;;;;;;;6.18;3.42;;;;;;;;;;5068264;28;20060;-49
2022/02/11 09:11:08;;;;;;;6.53;3.45;;;;;;;;;;5071724;28;20033;-49
2022/02/11 09:13:34;;;;;;;5.63;3.95;;;;;;;;;;5072176;28;20051;-50
2022/02/11 09:16:01;;;;;;;6.15;3.35;;;;;;;;;;5072297;28;20482;-51
2022/02/11 09:18:27;;;;;;;8.13;3.33;;;;;;;;;;5067743;28;20086;-52
2022/02/11 09:20:53;;;;;;;6.50;3.40;;;;;;;;;;5067869;28;20046;-52
2022/02/11 09:23:23;;;;;;;6.10;3.20;;;;;;;;;;5071643;28;20020;-56
2022/02/11 09:25:49;;;;;;;6.57;3.80;;;;;;;;;;5066449;28;20028;-55
2022/02/11 09:28:15;;;;;;;6.32;3.58;;;;;;;;;;5071833;28;20024;-53
2022/02/11 09:30:41;;;;;;;9.18;3.67;;;;;;;;;;5070209;28;20032;-52
2022/02/11 09:33:08;;;;;;;8.93;3.63;;;;;;;;;;5074340;28;20032;-50
2022/02/11 09:35:35;;;;;;;6.53;3.20;;;;;;;;;;5069957;28;20028;-50
2022/02/11 09:38:01;;;;;;;8.23;4.05;;;;;;;;;;5066592;28;20024;-50
2022/02/11 09:40:27;;;;;;;6.25;3.10;;;;;;;;;;5067581;28;20032;-52
2022/02/11 09:42:54;;;;;;;6.32;3.28;;;;;;;;;;5071826;28;20354;-50
2022/02/11 09:45:21;;;;;;;7.97;3.35;;;;;;;;;;5066034;28;20025;-49
2022/02/11 09:47:49;;;;;;;9.50;3.38;;;;;;;;;;5072311;28;20518;-53
2022/02/11 09:50:15;;;;;;;9.73;3.22;;;;;;;;;;5067928;28;20038;-51
2022/02/11 09:52:42;;;;;;;12.43;3.72;;;;;;;;;;5068914;28;20376;-52
2022/02/11 09:57:54;;;;;;;5.68;2.58;;;;;;;;;;5066637;28;20039;-49
2022/02/11 10:00:25;;;;;;;4.32;2.53;;;;;;;;;;5070591;28;20024;-50
2022/02/11 10:02:55;;;;;;;5.78;3.20;;;;;;;;;;5064890;28;20027;-50
2022/02/11 10:05:21;;;;;;;4.63;2.85;;;;;;;;;;5071582;28;20048;-50
2022/02/11 10:07:48;;;;;;;15.02;3.00;;;;;;;;;;5063249;28;20069;-50
2022/02/11 10:10:18;;;;;;;4.10;2.40;;;;;;;;;;5068319;28;20043;-50
2022/02/11 10:12:44;;;;;;;8.25;2.70;;;;;;;;;;5066424;28;20032;-52
2022/02/11 10:15:20;;;;;;;4.60;2.63;;;;;;;;;;5068439;28;20543;-50
2022/02/11 10:17:46;;;;;;;4.97;2.70;;;;;;;;;;5068080;28;20508;-50
2022/02/11 10:20:12;;;;;;;8.40;2.80;;;;;;;;;;5068708;28;20039;-47
2022/02/11 10:22:38;;;;;;;7.32;2.53;;;;;;;;;;5071965;28;20024;-49
2022/02/11 10:25:04;;;;;;;9.65;2.42;;;;;;;;;;5068371;28;20070;-49
2022/02/11 10:27:32;;;;;;;6.13;2.40;;;;;;;;;;5069563;28;20364;-48
2022/02/11 10:30:08;;;;;;;3.58;2.15;;;;;;;;;;5061283;28;20029;-49
2022/02/11 10:32:43;;;;;;;4.07;2.20;;;;;;;;;;5059209;28;20575;-48
2022/02/11 10:35:13;;;;;;;6.05;2.35;;;;;;;;;;5065225;28;20139;-50
2022/02/11 10:37:59;;;;;;;5.07;2.38;;;;;;;;;;5068901;28;20085;-53
2022/02/11 10:40:29;;;;;;;9.20;2.50;;;;;;;;;;5070084;28;20101;-49
2022/02/11 10:42:55;;;;;;;4.72;2.15;;;;;;;;;;5069325;28;20024;-49
2022/02/11 10:45:39;;;;;;;7.43;2.55;;;;;;;;;;5071877;28;20025;-47
2022/02/11 10:48:12;;;;;;;7.32;2.50;;;;;;;;;;5067361;28;20065;-47
2022/02/11 10:50:47;;;;;;;5.18;2.40;;;;;;;;;;5071663;28;20562;-51
2022/02/11 10:53:20;;;;;;;6.88;2.55;;;;;;;;;;5067988;28;20421;-48
2022/02/11 10:55:47;;;;;;;4.43;2.10;;;;;;;;;;5061958;28;20028;-48
2022/02/11 10:58:17;;;;;;;6.97;2.63;;;;;;;;;;5061052;28;20456;-48
2022/02/11 11:00:44;;;;;;;7.22;2.80;;;;;;;;;;5064614;28;20028;-49
2022/02/11 11:03:13;;;;;;;4.20;2.30;;;;;;;;;;5066443;28;20074;-52
2022/02/11 11:05:41;;;;;;;4.78;2.38;;;;;;;;;;5062268;28;20029;-49
2022/02/11 11:08:09;;;;;;;2.75;2.20;;;;;;;;;;5069245;28;20056;-48
2022/02/11 11:10:35;;;;;;;3.75;2.03;;;;;;;;;;5069115;28;20025;-48
2022/02/11 11:13:01;;;;;;;6.30;2.22;;;;;;;;;;5071849;28;20033;-48
2022/02/11 11:15:27;;;;;;;6.25;2.10;;;;;;;;;;5074918;28;20025;-48
2022/02/11 11:17:54;;;;;;;5.47;2.15;;;;;;;;;;5084148;28;20456;-49
2022/02/11 11:20:21;;;;;;;3.83;1.83;;;;;;;;;;5075528;28;20031;-49
2022/02/11 11:22:49;;;;;;;6.68;2.30;;;;;;;;;;5066754;28;20028;-48
2022/02/11 11:25:16;;;;;;;5.22;2.30;;;;;;;;;;5076940;28;20362;-49
2022/02/11 11:27:49;;;;;;;4.30;1.73;;;;;;;;;;5063661;28;20040;-48
2022/02/11 11:30:21;;;;;;;4.65;2.08;;;;;;;;;;5058495;28;20043;-48
2022/02/11 11:33:05;;;;;;;3.53;2.17;;;;;;;;;;5070844;28;20392;-51
2022/02/11 11:35:32;;;;;;;2.70;2.08;;;;;;;;;;5073258;28;20067;-50
2022/02/11 11:38:17;;;;;;;7.47;2.40;;;;;;;;;;5062431;28;20360;-50
2022/02/11 11:41:01;;;;;;;3.80;1.80;;;;;;;;;;5063849;28;20067;-48
2022/02/11 11:43:34;;;;;;;5.90;2.88;;;;;;;;;;5073794;28;20031;-48
2022/02/11 11:46:04;;;;;;;7.07;2.17;;;;;;;;;;5063187;28;20029;-49
2022/02/11 11:48:40;;;;;;;3.58;2.33;;;;;;;;;;5070348;28;20162;-48
2022/02/11 11:51:06;;;;;;;4.43;1.98;;;;;;;;;;5069576;28;20028;-47
2022/02/11 11:53:32;;;;;;;9.13;2.42;;;;;;;;;;5081145;28;20495;-48
2022/02/11 11:55:58;;;;;;;4.88;2.33;;;;;;;;;;5063564;28;20039;-48
2022/02/11 11:58:32;;;;;;;7.63;2.55;;;;;;;;;;5074178;28;20033;-48
2022/02/11 12:01:01;;;;;;;5.95;2.40;;;;;;;;;;5065675;28;20047;-48
2022/02/11 12:03:27;;;;;;;8.13;3.03;;;;;;;;;;5064737;28;20108;-48
2022/02/11 12:05:53;;;;;;;4.38;2.40;;;;;;;;;;5072988;28;20468;-48
2022/02/11 12:08:27;;;;;;;5.35;2.42;;;;;;;;;;5075149;28;20036;-49
2022/02/11 12:10:55;;;;;;;5.53;2.08;;;;;;;;;;5085218;28;20024;-49
2022/02/11 12:13:22;;;;;;;4.15;2.10;;;;;;;;;;5062075;28;20405;-48
2022/02/11 12:15:49;;;;;;;5.70;2.30;;;;;;;;;;5073749;28;20476;-48
2022/02/11 12:18:15;;;;;;;3.35;1.73;;;;;;;;;;5072432;28;20028;-49
2022/02/11 12:20:43;;;;;;;4.22;2.10;;;;;;;;;;5068806;28;20025;-48
2022/02/11 12:28:41;;;;;;;2.25;1.77;;;;;;;;;;5057987;28;20047;-48
2022/02/11 12:31:08;;;;;;;2.75;1.70;;;;;;;;;;5055748;28;20070;-48
2022/02/11 12:33:34;;;;;;;2.42;1.83;;;;;;;;;;5068622;28;20020;-48
2022/02/11 12:36:12;;;;;;;2.72;1.75;;;;;;;;;;5061271;28;20396;-48
2022/02/11 12:38:39;;;;;;;3.15;2.05;;;;;;;;;;5064949;28;20012;-50
2022/02/11 12:41:05;;;;;;;2.17;1.65;;;;;;;;;;5061788;28;20462;-50
2022/02/11 12:43:31;;;;;;;3.85;1.70;;;;;;;;;;5069729;28;20032;-48
2022/02/11 12:45:57;;;;;;;1.50;1.10;;;;;;;;;;5065040;28;20027;-48
2022/02/11 12:48:30;;;;;;;1.58;1.33;;;;;;;;;;5065687;28;20029;-48
2022/02/11 12:50:56;;;;;;;1.60;1.50;;;;;;;;;;5060391;28;20032;-48
2022/02/11 12:53:25;;;;;;;4.57;1.60;;;;;;;;;;5062058;28;20047;-49
2022/02/11 12:55:51;;;;;;;2.35;1.60;;;;;;;;;;5060383;28;20077;-48
2022/02/11 12:58:19;;;;;;;3.22;2.08;;;;;;;;;;5063211;28;20435;-50
2022/02/11 13:00:49;;;;;;;5.40;2.08;;;;;;;;;;5063599;28;20027;-48
2022/02/11 13:03:16;;;;;;;3.53;2.00;;;;;;;;;;5060364;28;20029;-48
2022/02/11 13:05:44;;;;;;;2.83;2.47;;;;;;;;;;5061504;28;20047;-48
2022/02/11 13:08:11;;;;;;;6.47;2.33;;;;;;;;;;5058869;28;20037;-49
2022/02/11 13:10:38;;;;;;;4.97;2.65;;;;;;;;;;5064226;28;20039;-48
2022/02/11 13:13:15;;;;;;;3.38;2.30;;;;;;;;;;5066177;28;20029;-48
2022/02/11 13:15:45;;;;;;;4.47;2.80;;;;;;;;;;5061170;28;20029;-47
2022/02/11 13:18:18;;;;;;;6.18;2.70;;;;;;;;;;5065967;28;20166;-48
2022/02/11 13:20:46;;;;;;;3.83;2.50;;;;;;;;;;5058794;28;20100;-50
2022/02/11 13:23:13;;;;;;;5.68;2.78;;;;;;;;;;5066774;28;20389;-48
2022/02/11 13:25:39;;;;;;;3.63;2.67;;;;;;;;;;5065358;28;20021;-48
2022/02/11 13:28:18;;;;;;;5.22;2.70;;;;;;;;;;5064157;28;20036;-48
2022/02/11 13:30:46;;;;;;;4.65;2.45;;;;;;;;;;5060008;28;20061;-50
2022/02/11 13:33:26;;;;;;;8.30;2.72;;;;;;;;;;5057079;28;20025;-48
2022/02/11 13:35:53;;;;;;;3.35;2.70;;;;;;;;;;5063550;28;20055;-47
2022/02/11 13:38:27;;;;;;;4.53;2.88;;;;;;;;;;5063316;28;20222;-47
2022/02/11 13:40:54;;;;;;;3.70;2.58;;;;;;;;;;5061844;28;20100;-49
2022/02/11 13:43:20;;;;;;;4.55;2.80;;;;;;;;;;5068250;28;20024;-48
2022/02/11 13:45:50;;;;;;;5.13;2.80;;;;;;;;;;5058000;28;20644;-49
2022/02/11 13:48:16;;;;;;;5.47;3.15;;;;;;;;;;5065520;28;20390;-48
2022/02/11 13:50:57;;;;;;;6.00;2.78;;;;;;;;;;5067015;28;20112;-48
2022/02/11 13:53:26;;;;;;;4.10;2.60;;;;;;;;;;5064040;28;20447;-48
2022/02/11 13:55:52;;;;;;;5.10;2.60;;;;;;;;;;5059409;28;20029;-50
2022/02/11 13:58:19;;;;;;;7.38;3.10;;;;;;;;;;5057946;28;20082;-50
2022/02/11 14:00:45;;;;;;;5.85;2.55;;;;;;;;;;5065821;28;20046;-48
2022/02/11 14:03:25;;;;;;;2.83;2.17;;;;;;;;;;5064997;28;20456;-51
2022/02/11 14:05:53;;;;;;;3.05;2.47;;;;;;;;;;5071526;28;20024;-50
2022/02/11 14:08:21;;;;;;;3.45;2.25;;;;;;;;;;5065617;28;20024;-47
2022/02/11 14:10:48;;;;;;;5.65;2.30;;;;;;;;;;5064497;28;20067;-52
2022/02/11 14:13:14;;;;;;;3.28;2.25;;;;;;;;;;5057872;28;20029;-48
2022/02/11 14:15:41;;;;;;;3.20;2.38;;;;;;;;;;5070577;28;20020;-48
2022/02/11 14:18:08;;;;;;;2.95;2.10;;;;;;;;;;5063558;28;20021;-48
2022/02/11 14:20:37;;;;;;;3.63;2.28;;;;;;;;;;5065470;28;20122;-48
2022/02/11 14:23:16;;;;;;;4.85;2.35;;;;;;;;;;5066670;28;20016;-48
2022/02/11 14:25:43;;;;;;;4.15;2.70;;;;;;;;;;5070384;28;20486;-48
2022/02/11 14:28:13;;;;;;;4.07;2.90;;;;;;;;;;5065171;28;20032;-48
2022/02/11 14:30:40;;;;;;;4.28;2.88;;;;;;;;;;5064299;28;20033;-49
2022/02/11 14:33:06;;;;;;;4.70;3.17;;;;;;;;;;5063219;28;20021;-50
2022/02/11 14:35:32;;;;;;;6.90;3.28;;;;;;;;;;5066449;28;20028;-49
2022/02/11 14:37:58;;;;;;;4.80;3.15;;;;;;;;;;5071282;28;20028;-48
2022/02/11 14:40:24;;;;;;;4.15;3.22;;;;;;;;;;5069109;28;20028;-51
2022/02/11 14:42:50;;;;;;;5.72;3.53;;;;;;;;;;5071938;28;20025;-51
2022/02/11 14:45:17;;;;;;;5.95;3.22;;;;;;;;;;5074618;28;20400;-51
2022/02/11 14:47:43;;;;;;;5.78;3.03;;;;;;;;;;5058713;28;20045;-49
2022/02/11 14:50:09;;;;;;;4.63;2.80;;;;;;;;;;5069158;28;20028;-52
2022/02/11 14:52:35;;;;;;;5.22;2.72;;;;;;;;;;5068492;28;20021;-48
2022/02/11 14:55:01;;;;;;;5.70;2.78;;;;;;;;;;5074389;28;20465;-49
2022/02/11 14:57:28;;;;;;;3.53;2.50;;;;;;;;;;5067517;28;20044;-51
2022/02/11 14:59:54;;;;;;;7.65;3.10;;;;;;;;;;5069214;28;20028;-50
2022/02/11 15:02:20;;;;;;;4.22;2.22;;;;;;;;;;5073242;28;20027;-48
2022/02/11 15:04:47;;;;;;;7.45;2.65;;;;;;;;;;5069328;28;20505;-49
2022/02/11 15:07:13;;;;;;;3.20;2.22;;;;;;;;;;5068808;28;20041;-51
2022/02/11 15:09:39;;;;;;;3.30;2.45;;;;;;;;;;5068966;28;20116;-48
2022/02/11 15:12:05;;;;;;;3.75;2.20;;;;;;;;;;5062410;28;20107;-48
2022/02/11 15:14:32;;;;;;;4.38;2.60;;;;;;;;;;5068032;28;20033;-49
2022/02/11 15:16:58;;;;;;;3.00;2.28;;;;;;;;;;5073695;28;20035;-49
2022/02/11 15:19:24;;;;;;;3.88;2.50;;;;;;;;;;5067558;28;20017;-49
2022/02/11 15:21:50;;;;;;;4.57;2.20;;;;;;;;;;5066220;28;20037;-48
2022/02/11 15:24:16;;;;;;;3.65;2.72;;;;;;;;;;5068449;28;20025;-48
2022/02/11 15:26:42;;;;;;;4.60;3.10;;;;;;;;;;5068648;28;20457;-49
2022/02/11 15:29:08;;;;;;;2.97;2.55;;;;;;;;;;5063377;28;20025;-48
2022/02/11 15:31:36;;;;;;;3.67;2.75;;;;;;;;;;5063534;28;20044;-48
2022/02/11 15:34:03;;;;;;;3.55;2.83;;;;;;;;;;5062229;28;20142;-48
2022/02/11 15:36:29;;;;;;;3.58;2.65;;;;;;;;;;5069247;28;20640;-49
2022/02/11 15:38:55;;;;;;;7.15;2.85;;;;;;;;;;5062360;28;20040;-47
2022/02/11 15:41:21;;;;;;;6.05;2.88;;;;;;;;;;5072762;28;20507;-51
2022/02/11 15:43:47;;;;;;;4.47;2.92;;;;;;;;;;5065128;28;20025;-49
2022/02/11 15:46:13;;;;;;;5.18;3.60;;;;;;;;;;5070840;28;20037;-49
2022/02/11 15:48:39;;;;;;;5.82;3.33;;;;;;;;;;5067318;28;20088;-50
2022/02/11 15:51:06;;;;;;;4.47;3.75;;;;;;;;;;5066222;28;20082;-51
2022/02/11 15:53:32;;;;;;;3.67;2.83;;;;;;;;;;5060811;28;20538;-49
2022/02/11 15:55:58;;;;;;;3.00;2.60;;;;;;;;;;5073773;28;20096;-48
2022/02/11 15:58:25;;;;;;;9.63;3.40;;;;;;;;;;5065037;28;20048;-49
2022/02/11 16:00:51;;;;;;;4.15;2.78;;;;;;;;;;5068169;28;20553;-49
2022/02/11 16:03:17;;;;;;;5.22;2.80;;;;;;;;;;5062910;28;20361;-51
2022/02/11 16:05:43;;;;;;;3.78;2.72;;;;;;;;;;5070243;28;20040;-49
2022/02/11 16:08:09;;;;;;;7.65;3.22;;;;;;;;;;5063242;28;20033;-49
2022/02/11 16:10:35;;;;;;;4.80;3.10;;;;;;;;;;5063502;28;20457;-49
2022/02/11 16:13:01;;;;;;;3.92;2.90;;;;;;;;;;5063371;28;20021;-48
2022/02/11 16:15:27;;;;;;;4.68;3.25;;;;;;;;;;5072801;28;20039;-48
2022/02/11 16:18:00;;;;;;;7.13;3.67;;;;;;;;;;5069460;28;20029;-52
2022/02/11 16:20:26;;;;;;;5.70;3.25;;;;;;;;;;5073470;28;20032;-48
2022/02/11 16:22:52;;;;;;;4.85;3.10;;;;;;;;;;5064946;28;20024;-51
2022/02/11 16:25:18;;;;;;;6.68;3.08;;;;;;;;;;5065554;28;20078;-48
2022/02/11 16:27:44;;;;;;;7.38;3.40;;;;;;;;;;5069861;28;20074;-48
2022/02/11 16:30:10;;;;;;;7.20;3.15;;;;;;;;;;5073385;28;20082;-47
2022/02/11 16:32:36;;;;;;;6.85;3.80;;;;;;;;;;5073355;28;20029;-48
2022/02/11 16:35:02;;;;;;;7.70;3.60;;;;;;;;;;5073351;28;20035;-48
2022/02/11 16:37:28;;;;;;;5.00;3.83;;;;;;;;;;5073002;28;20026;-49
2022/02/11 16:39:54;;;;;;;7.28;4.15;;;;;;;;;;5073426;28;20108;-48
2022/02/11 16:42:20;;;;;;;5.55;3.50;;;;;;;;;;5064460;28;20020;-48
2022/02/11 16:44:46;;;;;;;5.82;3.58;;;;;;;;;;5067515;28;20029;-47
2022/02/11 16:47:12;;;;;;;5.57;3.38;;;;;;;;;;5072754;28;20021;-49
2022/02/11 16:49:38;;;;;;;5.80;3.67;;;;;;;;;;5073247;28;20036;-48
2022/02/11 16:52:06;;;;;;;6.68;4.00;;;;;;;;;;5073167;28;20017;-48
2022/02/11 16:54:33;;;;;;;6.07;4.45;;;;;;;;;;5065457;28;20052;-47
2022/02/11 16:56:59;;;;;;;6.28;4.05;;;;;;;;;;5073794;28;20027;-48
2022/02/11 16:59:25;;;;;;;5.00;4.28;;;;;;;;;;5067976;28;20029;-47
2022/02/11 17:01:56;;;;;;;10.50;4.10;;;;;;;;;;5066391;28;20023;-49
2022/02/11 17:04:22;;;;;;;6.90;4.00;;;;;;;;;;5074224;28;20017;-46
2022/02/11 17:06:48;;;;;;;7.15;4.40;;;;;;;;;;5073189;28;20032;-46
2022/02/11 17:09:14;;;;;;;5.20;3.65;;;;;;;;;;5066973;28;20041;-49
2022/02/11 17:11:40;;;;;;;3.90;3.10;;;;;;;;;;5065609;28;20032;-47
2022/02/11 17:14:05;;;;;;;7.63;3.95;;;;;;;;;;5064148;28;20021;-47
2022/02/11 17:16:31;;;;;;;5.88;4.10;;;;;;;;;;5071001;28;20361;-47
2022/02/11 17:18:58;;;;;;;7.57;4.20;;;;;;;;;;5065235;28;20016;-49
2022/02/11 17:21:25;;;;;;;7.60;3.90;;;;;;;;;;5056992;28;20032;-47
2022/02/11 17:23:51;;;;;;;5.90;3.35;;;;;;;;;;5068355;28;20082;-47
2022/02/11 17:26:17;;;;;;;8.45;4.25;;;;;;;;;;5069872;28;20028;-46
2022/02/11 17:28:43;;;;;;;5.72;4.30;;;;;;;;;;5061014;28;20024;-46
2022/02/11 17:31:09;;;;;;;9.30;4.95;;;;;;;;;;5059144;28;20039;-46
2022/02/11 17:33:35;;;;;;;7.25;4.60;;;;;;;;;;5069114;28;20074;-46
2022/02/11 17:36:01;;;;;;;8.25;5.00;;;;;;;;;;5062066;28;20037;-47
2022/02/11 17:38:31;;;;;;;6.93;4.95;;;;;;;;;;5070149;28;20647;-46
2022/02/11 17:40:58;;;;;;;10.00;4.85;;;;;;;;;;5061254;28;20415;-46
2022/02/11 17:43:24;;;;;;;8.27;4.40;;;;;;;;;;5073348;28;20027;-46
2022/02/11 17:45:50;;;;;;;8.05;4.97;;;;;;;;;;5067530;28;20028;-46
2022/02/11 17:48:16;;;;;;;8.77;5.13;;;;;;;;;;5062314;28;20077;-47
2022/02/11 17:50:43;;;;;;;8.82;4.68;;;;;;;;;;5067376;28;20025;-46
2022/02/11 17:53:09;;;;;;;9.52;4.28;;;;;;;;;;5057607;28;20554;-46
2022/02/11 17:55:35;;;;;;;5.65;3.67;;;;;;;;;;5064867;28;20079;-46
2022/02/11 17:58:01;;;;;;;6.68;4.45;;;;;;;;;;5071681;28;20028;-46
2022/02/11 18:00:27;;;;;;;5.95;4.00;;;;;;;;;;5062090;28;20732;-46